PWSweather.com
Personal Weather Stations
Station Observations
KVTSWANT6
Maquam ShoreCamp Maquam, Swanton, VT 05488

Maquam ShoreCamp MaquamSwanton, VT 05488

Lat: 44.90250015, Lon: -73.16666412

Elevation: 109

Station Type: W-1090

Latest ConditionsUpdated 8:10:00 AM EDT Thursday, Jul 24, 2014
Currently Today's Max Today's Min Today's Average
Temperature 62.4°F16.9°C 71.1°F21.7°C 61.0°F16.1°C 65.3°F18.5°C
Dew Point 52.9°F11.6°C 65.7°F18.7°C 52.9°F11.6°C 57.7°F14.3°C
Winds 5.4 mph N8.7 kmh N 11.4 mph NNW18.3 kmh NNW - 7.7 mph 12.4 kmh
Wind Gusts 9.8 mph15.8 kmh 16.8 mph27.0 kmh - -
Humidity 71% 83% 66% 76%
Pressure 29.70 in1005.8 mb 29.70 in1005.8 mb 29.60 in1002.4 mb -
Hour Temp Dew Point Humidity Winds Wind Gusts Pressure Precip Precip Rate Daily Precip Total
08:10 AM 62.4°F16.9°C 52.9°F11.6°C 71% 5.4 mph N8.7 kmh N 9.8 mph15.8 kmh 29.70 in1005.8 mb 0.00 in0.0 mm 0.00 in/hr0.0 mm/hr 0.00 in0.0 mm
08:00 AM 62.6°F17.0°C 53.1°F11.7°C 71% 5.4 mph N8.7 kmh N 13.0 mph20.9 kmh 29.70 in1005.8 mb 0.00 in0.0 mm 0.00 in/hr0.0 mm/hr 0.00 in0.0 mm
07:50 AM 62.6°F17.0°C 54.2°F12.3°C 74% 7.6 mph N12.2 kmh N 13.6 mph21.9 kmh 29.70 in1005.8 mb 0.00 in0.0 mm 0.00 in/hr0.0 mm/hr 0.00 in0.0 mm
07:40 AM 62.1°F16.7°C 55.1°F12.8°C 78% 6.0 mph N9.7 kmh N 14.5 mph23.3 kmh 29.69 in1005.4 mb 0.00 in0.0 mm 0.00 in/hr0.0 mm/hr 0.00 in0.0 mm
07:30 AM 61.3°F16.3°C 55.1°F12.8°C 80% 6.9 mph N11.1 kmh N 10.7 mph17.2 kmh 29.69 in1005.4 mb 0.00 in0.0 mm 0.00 in/hr0.0 mm/hr 0.00 in0.0 mm
07:20 AM 61.0°F16.1°C 54.1°F12.3°C 78% 3.1 mph NNE5.0 kmh NNE 9.2 mph14.8 kmh 29.69 in1005.4 mb 0.00 in0.0 mm 0.00 in/hr0.0 mm/hr 0.00 in0.0 mm
07:10 AM 61.3°F16.3°C 54.4°F12.4°C 78% 1.6 mph N2.6 kmh N 13.0 mph20.9 kmh 29.69 in1005.4 mb 0.00 in0.0 mm 0.00 in/hr0.0 mm/hr 0.00 in0.0 mm
07:00 AM 61.5°F16.4°C 55.3°F12.9°C 80% 8.3 mph N13.4 kmh N 13.0 mph20.9 kmh 29.69 in1005.4 mb 0.00 in0.0 mm 0.00 in/hr0.0 mm/hr 0.00 in0.0 mm
06:50 AM 61.5°F16.4°C 55.3°F12.9°C 80% 6.0 mph N9.7 kmh N 12.1 mph19.5 kmh 29.69 in1005.4 mb 0.00 in0.0 mm 0.00 in/hr0.0 mm/hr 0.00 in0.0 mm
06:40 AM 61.7°F16.5°C 55.5°F13.1°C 80% 9.2 mph N14.8 kmh N 14.5 mph23.3 kmh 29.69 in1005.4 mb 0.00 in0.0 mm 0.00 in/hr0.0 mm/hr 0.00 in0.0 mm
06:30 AM 61.9°F16.6°C 55.0°F12.8°C 78% 4.5 mph N7.2 kmh N 13.6 mph21.9 kmh 29.69 in1005.4 mb 0.00 in0.0 mm 0.00 in/hr0.0 mm/hr 0.00 in0.0 mm
06:20 AM 61.9°F16.6°C 54.2°F12.3°C 76% 8.3 mph NNW13.4 kmh NNW 14.5 mph23.3 kmh 29.69 in1005.4 mb 0.00 in0.0 mm 0.00 in/hr0.0 mm/hr 0.00 in0.0 mm
06:10 AM 62.1°F16.7°C 55.1°F12.8°C 78% 8.3 mph N13.4 kmh N 13.6 mph21.9 kmh 29.69 in1005.4 mb 0.00 in0.0 mm 0.00 in/hr0.0 mm/hr 0.00 in0.0 mm
06:00 AM 62.2°F16.8°C 55.3°F12.9°C 78% 9.8 mph N15.8 kmh N 13.6 mph21.9 kmh 29.68 in1005.1 mb 0.00 in0.0 mm 0.00 in/hr0.0 mm/hr 0.00 in0.0 mm
05:50 AM 62.6°F17.0°C 56.0°F13.3°C 79% 7.6 mph NNW12.2 kmh NNW 12.1 mph19.5 kmh 29.67 in1004.7 mb 0.00 in0.0 mm 0.00 in/hr0.0 mm/hr 0.00 in0.0 mm
05:40 AM 62.8°F17.1°C 55.1°F12.8°C 76% 7.6 mph N12.2 kmh N 13.6 mph21.9 kmh 29.67 in1004.7 mb 0.00 in0.0 mm 0.00 in/hr0.0 mm/hr 0.00 in0.0 mm
05:30 AM 62.8°F17.1°C 55.5°F13.1°C 77% 9.8 mph N15.8 kmh N 14.5 mph23.3 kmh 29.67 in1004.7 mb 0.00 in0.0 mm 0.00 in/hr0.0 mm/hr 0.00 in0.0 mm
05:20 AM 63.0°F17.2°C 54.6°F12.6°C 74% 5.4 mph N8.7 kmh N 13.6 mph21.9 kmh 29.66 in1004.4 mb 0.00 in0.0 mm 0.00 in/hr0.0 mm/hr 0.00 in0.0 mm
05:10 AM 63.3°F17.4°C 55.3°F12.9°C 75% 10.7 mph N17.2 kmh N 15.2 mph24.5 kmh 29.66 in1004.4 mb 0.00 in0.0 mm 0.00 in/hr0.0 mm/hr 0.00 in0.0 mm
05:00 AM 63.5°F17.5°C 55.1°F12.8°C 74% 6.9 mph N11.1 kmh N 15.2 mph24.5 kmh 29.66 in1004.4 mb 0.00 in0.0 mm 0.00 in/hr0.0 mm/hr 0.00 in0.0 mm
04:50 AM 63.7°F17.6°C 54.9°F12.7°C 73% 7.6 mph N12.2 kmh N 14.5 mph23.3 kmh 29.66 in1004.4 mb 0.00 in0.0 mm 0.00 in/hr0.0 mm/hr 0.00 in0.0 mm
04:40 AM 64.0°F17.8°C 55.2°F12.9°C 73% 9.8 mph NNW15.8 kmh NNW 15.2 mph24.5 kmh 29.65 in1004.1 mb 0.00 in0.0 mm 0.00 in/hr0.0 mm/hr 0.00 in0.0 mm
04:30 AM 64.2°F17.9°C 55.8°F13.2°C 74% 9.2 mph N14.8 kmh N 15.2 mph24.5 kmh 29.64 in1003.7 mb 0.00 in0.0 mm 0.00 in/hr0.0 mm/hr 0.00 in0.0 mm
04:20 AM 64.4°F18.0°C 55.2°F12.9°C 72% 9.2 mph N14.8 kmh N 13.6 mph21.9 kmh 29.64 in1003.7 mb 0.00 in0.0 mm 0.00 in/hr0.0 mm/hr 0.00 in0.0 mm
04:10 AM 64.2°F17.9°C 55.4°F13.0°C 73% 8.3 mph N13.4 kmh N 11.4 mph18.3 kmh 29.64 in1003.7 mb 0.00 in0.0 mm 0.00 in/hr0.0 mm/hr 0.00 in0.0 mm
04:00 AM 64.2°F17.9°C 54.2°F12.3°C 70% 3.8 mph NE6.1 kmh NE 11.4 mph18.3 kmh 29.63 in1003.4 mb 0.00 in0.0 mm 0.00 in/hr0.0 mm/hr 0.00 in0.0 mm
03:50 AM 64.8°F18.2°C 56.3°F13.5°C 74% 3.1 mph N5.0 kmh N 13.0 mph20.9 kmh 29.63 in1003.4 mb 0.00 in0.0 mm 0.00 in/hr0.0 mm/hr 0.00 in0.0 mm
03:40 AM 65.1°F18.4°C 56.3°F13.5°C 73% 6.9 mph N11.1 kmh N 13.6 mph21.9 kmh 29.63 in1003.4 mb 0.00 in0.0 mm 0.00 in/hr0.0 mm/hr 0.00 in0.0 mm
03:30 AM 65.3°F18.5°C 53.7°F12.1°C 66% 3.8 mph N6.1 kmh N 10.7 mph17.2 kmh 29.62 in1003.0 mb 0.00 in0.0 mm 0.00 in/hr0.0 mm/hr 0.00 in0.0 mm
03:20 AM 65.5°F18.6°C 53.8°F12.1°C 66% 3.1 mph NNE5.0 kmh NNE 13.0 mph20.9 kmh 29.62 in1003.0 mb 0.00 in0.0 mm 0.00 in/hr0.0 mm/hr 0.00 in0.0 mm
03:10 AM 66.2°F19.0°C 55.3°F12.9°C 68% 6.9 mph NNE11.1 kmh NNE 14.5 mph23.3 kmh 29.62 in1003.0 mb 0.00 in0.0 mm 0.00 in/hr0.0 mm/hr 0.00 in0.0 mm
03:00 AM 66.7°F19.3°C 56.3°F13.5°C 69% 6.9 mph N11.1 kmh N 16.8 mph27.0 kmh 29.62 in1003.0 mb 0.00 in0.0 mm 0.00 in/hr0.0 mm/hr 0.00 in0.0 mm
02:50 AM 67.5°F19.7°C 58.1°F14.5°C 72% 10.7 mph N17.2 kmh N 16.8 mph27.0 kmh 29.62 in1003.0 mb 0.00 in0.0 mm 0.00 in/hr0.0 mm/hr 0.00 in0.0 mm
02:40 AM 67.1°F19.5°C 58.2°F14.6°C 73% 6.0 mph N9.7 kmh N 13.6 mph21.9 kmh 29.62 in1003.0 mb 0.00 in0.0 mm 0.00 in/hr0.0 mm/hr 0.00 in0.0 mm
02:30 AM 67.6°F19.8°C 59.1°F15.1°C 74% 9.8 mph N15.8 kmh N 13.6 mph21.9 kmh 29.62 in1003.0 mb 0.00 in0.0 mm 0.00 in/hr0.0 mm/hr 0.00 in0.0 mm
02:20 AM 67.6°F19.8°C 60.6°F15.9°C 78% 6.0 mph N9.7 kmh N 13.0 mph20.9 kmh 29.61 in1002.7 mb 0.00 in0.0 mm 0.00 in/hr0.0 mm/hr 0.00 in0.0 mm
02:10 AM 68.0°F20.0°C 61.3°F16.3°C 79% 8.3 mph N13.4 kmh N 13.0 mph20.9 kmh 29.61 in1002.7 mb 0.00 in0.0 mm 0.00 in/hr0.0 mm/hr 0.00 in0.0 mm
02:00 AM 68.2°F20.1°C 61.1°F16.2°C 78% 9.8 mph N15.8 kmh N 13.0 mph20.9 kmh 29.61 in1002.7 mb 0.00 in0.0 mm 0.00 in/hr0.0 mm/hr 0.00 in0.0 mm
01:50 AM 68.5°F20.3°C 62.2°F16.8°C 80% 9.2 mph NNW14.8 kmh NNW 13.6 mph21.9 kmh 29.61 in1002.7 mb 0.00 in0.0 mm 0.00 in/hr0.0 mm/hr 0.00 in0.0 mm
01:40 AM 68.9°F20.5°C 63.2°F17.3°C 82% 9.2 mph NNW14.8 kmh NNW 13.6 mph21.9 kmh 29.61 in1002.7 mb 0.00 in0.0 mm 0.00 in/hr0.0 mm/hr 0.00 in0.0 mm
01:30 AM 69.1°F20.6°C 62.7°F17.1°C 80% 9.8 mph NNW15.8 kmh NNW 14.5 mph23.3 kmh 29.61 in1002.7 mb 0.00 in0.0 mm 0.00 in/hr0.0 mm/hr 0.00 in0.0 mm
01:20 AM 69.3°F20.7°C 62.9°F17.2°C 80% 11.4 mph NNW18.3 kmh NNW 13.6 mph21.9 kmh 29.61 in1002.7 mb 0.00 in0.0 mm 0.00 in/hr0.0 mm/hr 0.00 in0.0 mm
01:10 AM 69.4°F20.8°C 64.1°F17.8°C 83% 8.3 mph NNW13.4 kmh NNW 13.0 mph20.9 kmh 29.61 in1002.7 mb 0.00 in0.0 mm 0.00 in/hr0.0 mm/hr 0.00 in0.0 mm
01:00 AM 70.0°F21.1°C 64.3°F17.9°C 82% 9.8 mph NW15.8 kmh NW 13.0 mph20.9 kmh 29.61 in1002.7 mb 0.00 in0.0 mm 0.00 in/hr0.0 mm/hr 0.00 in0.0 mm
12:50 AM 70.0°F21.1°C 63.9°F17.7°C 81% 9.2 mph NNW14.8 kmh NNW 15.2 mph24.5 kmh 29.61 in1002.7 mb 0.00 in0.0 mm 0.00 in/hr0.0 mm/hr 0.00 in0.0 mm
12:40 AM 70.3°F21.3°C 63.9°F17.7°C 80% 11.4 mph NNW18.3 kmh NNW 16.8 mph27.0 kmh 29.60 in1002.4 mb 0.00 in0.0 mm 0.00 in/hr0.0 mm/hr 0.00 in0.0 mm
12:30 AM 70.5°F21.4°C 64.8°F18.2°C 82% 10.7 mph NW17.2 kmh NW 13.0 mph20.9 kmh 29.61 in1002.7 mb 0.00 in0.0 mm 0.00 in/hr0.0 mm/hr 0.00 in0.0 mm
12:20 AM 70.9°F21.6°C 65.5°F18.6°C 83% 9.2 mph NW14.8 kmh NW 14.5 mph23.3 kmh 29.61 in1002.7 mb 0.00 in0.0 mm 0.00 in/hr0.0 mm/hr 0.00 in0.0 mm
12:10 AM 70.9°F21.6°C 65.1°F18.4°C 82% 9.8 mph NNW15.8 kmh NNW 14.5 mph23.3 kmh 29.61 in1002.7 mb 0.00 in0.0 mm 0.00 in/hr0.0 mm/hr 0.00 in0.0 mm
12:00 AM 71.1°F21.7°C 65.7°F18.7°C 83% 9.8 mph NNW15.8 kmh NNW 13.0 mph20.9 kmh 29.60 in1002.4 mb 0.00 in0.0 mm 0.00 in/hr0.0 mm/hr 0.00 in0.0 mm